createdAt,value
2023-01-27T00:00:31.472Z,68.30
2023-01-27T00:03:19.460Z,68.93
2023-01-27T00:05:47.149Z,69.38
2023-01-27T00:08:17.753Z,69.16
2023-01-27T00:10:44.854Z,68.72
2023-01-27T00:13:27.145Z,69.23
2023-01-27T00:15:54.765Z,68.83
2023-01-27T00:18:23.468Z,68.59
2023-01-27T00:21:09.128Z,68.20
2023-01-27T00:23:55.456Z,69.19
2023-01-27T00:26:23.089Z,68.78
2023-01-27T00:28:52.957Z,69.05
2023-01-27T00:31:38.286Z,68.77
2023-01-27T00:34:09.440Z,69.29
2023-01-27T00:36:38.019Z,68.16
2023-01-27T00:39:06.399Z,68.58
2023-01-27T00:41:34.191Z,68.53
2023-01-27T00:44:05.570Z,68.67
2023-01-27T00:46:33.465Z,69.00
2023-01-27T00:49:00.839Z,69.11
2023-01-27T00:51:27.827Z,68.54
2023-01-27T00:53:55.179Z,68.96
2023-01-27T00:56:22.122Z,68.78
2023-01-27T00:58:49.395Z,69.37
2023-01-27T01:04:11.228Z,69.52
2023-01-27T01:06:38.501Z,69.48
2023-01-27T01:09:05.444Z,69.49
2023-01-27T01:11:32.755Z,69.26
2023-01-27T01:13:59.700Z,69.29
2023-01-27T01:16:27.028Z,69.63
2023-01-27T01:18:54.309Z,69.80
2023-01-27T01:21:22.979Z,69.28
2023-01-27T01:23:50.291Z,69.38
2023-01-27T01:26:18.175Z,69.53
2023-01-27T01:28:46.094Z,69.19
2023-01-27T01:31:16.135Z,69.66
2023-01-27T01:33:43.272Z,69.56
2023-01-27T01:36:12.698Z,69.41
2023-01-27T01:38:40.784Z,69.70
2023-01-27T01:41:11.568Z,69.60
2023-01-27T01:43:38.868Z,69.84
2023-01-27T01:46:10.040Z,69.69
2023-01-27T01:48:42.538Z,69.80
2023-01-27T01:51:13.597Z,69.71
2023-01-27T01:53:48.291Z,69.67
2023-01-27T01:56:19.243Z,69.12
2023-01-27T01:58:48.253Z,69.58
2023-01-27T02:01:17.933Z,69.86
2023-01-27T02:03:49.975Z,69.69
2023-01-27T02:06:17.586Z,69.90
2023-01-27T02:08:47.856Z,69.60
2023-01-27T02:11:15.913Z,69.64
2023-01-27T02:13:43.754Z,69.61
2023-01-27T02:16:11.986Z,69.94
2023-01-27T02:18:40.850Z,69.76
2023-01-27T02:21:08.433Z,69.99
2023-01-27T02:24:00.558Z,70.17
2023-01-27T02:26:32.347Z,70.40
2023-01-27T02:29:00.874Z,70.16
2023-01-27T02:31:28.135Z,70.49
2023-01-27T02:33:59.172Z,70.41
2023-01-27T02:36:27.822Z,70.16
2023-01-27T02:38:57.306Z,70.32
2023-01-27T02:41:30.924Z,70.42
2023-01-27T02:44:00.954Z,70.04
2023-01-27T02:46:28.415Z,70.54
2023-01-27T02:48:55.826Z,70.37
2023-01-27T02:51:23.266Z,70.30
2023-01-27T02:53:50.434Z,69.97
2023-01-27T02:56:17.497Z,70.42
2023-01-27T02:58:44.554Z,71.01
2023-01-27T03:01:13.231Z,70.15
2023-01-27T03:03:47.558Z,70.10
2023-01-27T03:06:15.191Z,70.18
2023-01-27T03:08:42.697Z,69.61
2023-01-27T03:11:10.041Z,69.50
2023-01-27T03:13:37.701Z,70.64
2023-01-27T03:16:26.831Z,70.02
2023-01-27T03:18:56.721Z,69.64
2023-01-27T03:21:24.061Z,70.24
2023-01-27T03:23:51.031Z,70.14
2023-01-27T03:26:18.227Z,70.50
2023-01-27T03:29:05.341Z,70.55
2023-01-27T03:31:32.550Z,70.44
2023-01-27T03:34:01.053Z,70.62
2023-01-27T03:36:46.812Z,70.16
2023-01-27T03:39:32.089Z,70.68
2023-01-27T03:42:17.821Z,70.67
2023-01-27T03:45:03.250Z,70.38
2023-01-27T03:47:30.796Z,71.04
2023-01-27T03:49:59.169Z,70.83
2023-01-27T03:52:26.865Z,70.69
2023-01-27T03:54:53.706Z,70.54
2023-01-27T03:57:20.921Z,70.65
2023-01-27T03:59:47.840Z,70.38
2023-01-27T04:02:35.168Z,70.59
2023-01-27T04:05:22.436Z,70.88
2023-01-27T04:07:49.555Z,70.77
2023-01-27T04:10:22.108Z,71.02
2023-01-27T04:12:52.219Z,71.21
2023-01-27T04:15:19.626Z,71.24
2023-01-27T04:17:46.961Z,70.96
2023-01-27T04:20:15.382Z,71.37
2023-01-27T04:22:43.643Z,71.08
2023-01-27T04:25:13.742Z,70.95
2023-01-27T04:27:41.438Z,70.93
2023-01-27T04:30:14.647Z,70.91
2023-01-27T04:32:45.703Z,70.50
2023-01-27T04:35:13.028Z,70.79
2023-01-27T04:37:41.943Z,70.95
2023-01-27T04:40:10.819Z,70.66
2023-01-27T04:42:37.971Z,71.05
2023-01-27T04:45:05.600Z,71.14
2023-01-27T04:47:32.804Z,70.80
2023-01-27T04:50:00.011Z,70.70
2023-01-27T04:52:27.513Z,71.00
2023-01-27T04:54:55.792Z,70.74
2023-01-27T04:57:23.071Z,70.58
2023-01-27T04:59:50.188Z,70.95
2023-01-27T05:02:17.370Z,70.69
2023-01-27T05:04:44.358Z,70.56
2023-01-27T05:07:11.571Z,70.33
2023-01-27T05:09:39.443Z,70.40
2023-01-27T05:12:08.163Z,70.64
2023-01-27T05:14:35.006Z,70.71
2023-01-27T05:17:02.186Z,70.31
2023-01-27T05:19:29.170Z,70.71
2023-01-27T05:21:56.448Z,70.66
2023-01-27T05:24:23.382Z,70.32
2023-01-27T05:26:50.574Z,70.47
2023-01-27T05:29:18.857Z,70.68
2023-01-27T05:31:46.173Z,70.63
2023-01-27T05:34:13.305Z,70.47
2023-01-27T05:36:40.444Z,70.29
2023-01-27T05:39:10.161Z,70.27
2023-01-27T05:41:37.831Z,70.66
2023-01-27T05:44:05.194Z,70.67
2023-01-27T05:46:33.928Z,70.34
2023-01-27T05:49:04.266Z,70.54
2023-01-27T05:51:33.513Z,70.76
2023-01-27T05:54:01.128Z,70.29
2023-01-27T05:56:28.621Z,75.71
2023-01-27T05:58:56.882Z,73.96
2023-01-27T06:01:26.659Z,74.83
2023-01-27T06:03:55.688Z,70.90
2023-01-27T06:06:24.885Z,69.28
2023-01-27T06:08:51.870Z,69.69
2023-01-27T06:11:21.127Z,70.00
2023-01-27T06:13:48.566Z,69.75
2023-01-27T06:16:20.672Z,71.39
2023-01-27T06:18:48.310Z,71.34
2023-01-27T06:21:17.736Z,71.58
2023-01-27T06:23:44.876Z,71.61
2023-01-27T06:26:13.787Z,71.79
2023-01-27T06:28:40.928Z,72.17
2023-01-27T06:31:09.818Z,72.02
2023-01-27T06:33:37.236Z,73.43
2023-01-27T06:36:06.899Z,72.26
2023-01-27T06:38:35.830Z,72.79
2023-01-27T06:41:03.583Z,72.68
2023-01-27T06:43:30.930Z,71.86
2023-01-27T06:45:58.268Z,71.61
2023-01-27T06:48:26.542Z,71.50
2023-01-27T06:50:54.125Z,71.29
2023-01-27T06:53:21.575Z,71.06
2023-01-27T06:55:55.770Z,70.86
2023-01-27T06:58:22.889Z,70.26
2023-01-27T07:00:50.172Z,70.53
2023-01-27T07:03:17.205Z,69.85
2023-01-27T07:05:44.558Z,70.01
2023-01-27T07:08:11.466Z,70.21
2023-01-27T07:10:39.403Z,69.73
2023-01-27T07:13:09.108Z,70.20
2023-01-27T07:15:36.711Z,70.61
2023-01-27T07:18:04.429Z,70.49
2023-01-27T07:20:32.305Z,70.13
2023-01-27T07:23:00.168Z,70.02
2023-01-27T07:25:28.677Z,69.74
2023-01-27T07:27:57.250Z,69.73
2023-01-27T07:30:26.017Z,69.66
2023-01-27T07:32:54.433Z,69.40
2023-01-27T07:35:21.938Z,69.66
2023-01-27T07:37:48.777Z,69.37
2023-01-27T07:40:16.812Z,69.23
2023-01-27T07:42:43.799Z,68.97
2023-01-27T07:45:11.222Z,68.80
2023-01-27T07:47:40.085Z,69.07
2023-01-27T07:50:07.730Z,68.58
2023-01-27T07:52:34.718Z,68.58
2023-01-27T07:55:01.935Z,68.56
2023-01-27T07:57:28.895Z,68.44
2023-01-27T07:59:56.668Z,67.98
2023-01-27T08:02:24.131Z,67.95
2023-01-27T08:04:53.936Z,68.00
2023-01-27T08:07:21.070Z,67.73
2023-01-27T08:09:48.341Z,68.34
2023-01-27T08:12:15.323Z,68.09
2023-01-27T08:14:42.609Z,68.57
2023-01-27T08:17:09.539Z,69.09
2023-01-27T08:19:36.780Z,68.96
2023-01-27T08:22:05.180Z,68.58
2023-01-27T08:24:32.335Z,68.55
2023-01-27T08:26:59.170Z,67.83
2023-01-27T08:29:26.494Z,68.25
2023-01-27T08:31:53.413Z,68.31
2023-01-27T08:34:21.042Z,67.83
2023-01-27T08:36:47.993Z,68.15
2023-01-27T08:39:16.884Z,68.19
2023-01-27T08:41:43.810Z,68.18
2023-01-27T08:44:11.080Z,67.78
2023-01-27T08:46:38.039Z,67.72
2023-01-27T08:49:05.619Z,69.45
2023-01-27T08:51:34.609Z,68.89
2023-01-27T08:54:02.030Z,69.03
2023-01-27T08:56:30.845Z,68.60
2023-01-27T08:58:58.173Z,68.13
2023-01-27T09:01:25.296Z,67.99
2023-01-27T09:03:52.848Z,67.29
2023-01-27T09:06:21.799Z,68.82
2023-01-27T09:09:11.217Z,68.56
2023-01-27T09:11:41.662Z,68.13
2023-01-27T09:14:09.371Z,67.25
2023-01-27T09:16:36.730Z,67.82
2023-01-27T09:19:04.244Z,67.57
2023-01-27T09:21:31.761Z,67.10
2023-01-27T09:23:59.156Z,67.34
2023-01-27T09:26:26.162Z,67.04
2023-01-27T09:28:54.671Z,67.13
2023-01-27T09:31:21.715Z,67.13
2023-01-27T09:33:49.070Z,67.36
2023-01-27T09:36:19.151Z,67.09
2023-01-27T09:38:50.220Z,66.87
2023-01-27T09:41:46.998Z,66.95
2023-01-27T09:44:41.299Z,66.02
2023-01-27T09:47:23.805Z,66.97
2023-01-27T09:50:12.934Z,66.05
2023-01-27T09:53:00.023Z,66.28
2023-01-27T09:55:38.614Z,66.93
2023-01-27T09:58:15.606Z,67.13
2023-01-27T10:00:57.260Z,66.96
2023-01-27T10:03:38.126Z,66.43
2023-01-27T10:06:39.187Z,66.49
2023-01-27T10:09:35.630Z,66.32
2023-01-27T10:12:13.273Z,66.86
2023-01-27T10:14:50.485Z,67.22
2023-01-27T10:17:31.297Z,66.52
2023-01-27T10:20:12.746Z,67.72
2023-01-27T10:22:53.096Z,67.74
2023-01-27T10:25:31.711Z,65.70
2023-01-27T10:28:10.098Z,66.12
2023-01-27T10:30:38.283Z,66.96
2023-01-27T10:33:16.469Z,68.84
2023-01-27T10:35:51.263Z,66.16
2023-01-27T10:38:32.268Z,66.80
2023-01-27T10:41:07.604Z,65.58
2023-01-27T10:43:53.725Z,66.23
2023-01-27T10:46:34.414Z,65.58
2023-01-27T10:49:06.534Z,66.92
2023-01-27T10:51:38.228Z,71.56
2023-01-27T10:54:13.363Z,67.92
2023-01-27T10:56:45.855Z,68.66
2023-01-27T10:59:25.009Z,65.86
2023-01-27T11:02:01.717Z,63.92
2023-01-27T11:04:42.958Z,63.79
2023-01-27T11:07:18.245Z,65.73
2023-01-27T11:09:53.834Z,66.00
2023-01-27T11:12:26.518Z,66.76
2023-01-27T11:14:54.212Z,67.08
2023-01-27T11:17:29.092Z,67.74
2023-01-27T11:20:15.281Z,67.76
2023-01-27T11:22:51.080Z,67.65
2023-01-27T11:25:27.302Z,67.97
2023-01-27T11:28:05.529Z,68.45
2023-01-27T11:30:39.268Z,67.82
2023-01-27T11:33:17.812Z,68.43
2023-01-27T11:35:53.832Z,67.56
2023-01-27T11:38:22.696Z,67.67
2023-01-27T11:40:51.672Z,67.86
2023-01-27T11:43:21.219Z,67.39
2023-01-27T11:45:50.015Z,67.70
2023-01-27T11:48:21.759Z,67.60
2023-01-27T11:50:51.841Z,67.01
2023-01-27T11:53:25.428Z,67.44
2023-01-27T11:55:58.292Z,68.58
2023-01-27T11:58:30.607Z,68.84
2023-01-27T12:01:01.843Z,67.52
2023-01-27T12:03:43.614Z,67.33
2023-01-27T12:06:17.369Z,68.12
2023-01-27T12:08:46.378Z,68.21
2023-01-27T12:11:24.690Z,67.21
2023-01-27T12:13:54.135Z,67.73
2023-01-27T12:16:23.629Z,67.84
2023-01-27T12:19:02.623Z,67.04
2023-01-27T12:21:47.140Z,67.31
2023-01-27T12:24:24.477Z,67.93
2023-01-27T12:26:53.562Z,67.02
2023-01-27T12:29:26.225Z,66.76
2023-01-27T12:31:55.724Z,67.41
2023-01-27T12:34:25.857Z,67.00
2023-01-27T12:36:56.076Z,67.61
2023-01-27T12:39:42.057Z,67.41
2023-01-27T12:42:36.063Z,67.29
2023-01-27T12:45:19.227Z,66.82
2023-01-27T12:47:56.891Z,66.20
2023-01-27T12:50:26.265Z,66.26
2023-01-27T12:53:15.067Z,66.89
2023-01-27T12:55:46.116Z,67.13
2023-01-27T12:58:33.900Z,67.50
2023-01-27T13:01:03.097Z,67.78
2023-01-27T13:03:31.232Z,68.10
2023-01-27T13:06:00.231Z,67.71
2023-01-27T13:08:33.620Z,67.64
2023-01-27T13:11:02.827Z,67.63
2023-01-27T13:13:31.128Z,67.44
2023-01-27T13:16:08.338Z,69.46
2023-01-27T13:18:38.922Z,70.31
2023-01-27T13:21:14.302Z,70.06
2023-01-27T13:23:44.541Z,69.78
2023-01-27T13:26:17.132Z,68.84
2023-01-27T13:28:53.317Z,68.67
2023-01-27T13:31:34.203Z,68.38
2023-01-27T13:34:06.245Z,67.92
2023-01-27T13:36:40.873Z,68.17
2023-01-27T13:39:17.633Z,67.86
2023-01-27T13:41:50.067Z,67.02
2023-01-27T13:44:25.799Z,67.68
2023-01-27T13:46:55.200Z,67.67
2023-01-27T13:49:32.031Z,67.54
2023-01-27T13:51:58.951Z,67.89
2023-01-27T13:54:30.141Z,66.56
2023-01-27T13:57:18.659Z,67.07
2023-01-27T13:59:57.881Z,67.20
2023-01-27T14:02:59.213Z,67.25
2023-01-27T14:05:39.572Z,67.54
2023-01-27T14:08:20.745Z,66.50
2023-01-27T14:11:04.279Z,67.32
2023-01-27T14:13:47.414Z,67.15
2023-01-27T14:16:22.963Z,66.39
2023-01-27T14:21:56.048Z,66.69
2023-01-27T14:24:36.097Z,67.72
2023-01-27T14:27:13.117Z,67.13
2023-01-27T14:29:48.777Z,67.46
2023-01-27T14:32:26.754Z,67.29
2023-01-27T14:35:09.898Z,67.76
2023-01-27T14:37:45.343Z,67.33
2023-01-27T14:40:17.969Z,67.73
2023-01-27T14:43:07.433Z,67.70
2023-01-27T14:45:37.138Z,68.33
2023-01-27T14:48:14.598Z,68.28
2023-01-27T14:50:48.576Z,68.26
2023-01-27T14:53:32.589Z,67.88
2023-01-27T14:56:07.457Z,67.86
2023-01-27T14:58:46.674Z,67.99
2023-01-27T15:01:24.720Z,67.79
2023-01-27T15:04:16.673Z,67.86
2023-01-27T15:06:47.583Z,67.54
2023-01-27T15:09:34.566Z,67.50
2023-01-27T15:12:22.615Z,67.49
2023-01-27T15:15:21.619Z,68.04
2023-01-27T15:18:06.690Z,67.44
2023-01-27T15:20:48.773Z,67.92
2023-01-27T15:23:53.586Z,67.59
2023-01-27T15:26:25.493Z,67.40
2023-01-27T15:28:53.509Z,67.84
2023-01-27T15:31:25.464Z,67.74
2023-01-27T15:33:55.729Z,68.14
2023-01-27T15:36:35.630Z,67.75
2023-01-27T15:39:16.704Z,68.11
2023-01-27T15:42:09.961Z,67.94
2023-01-27T15:44:42.494Z,68.13
2023-01-27T15:47:14.906Z,68.02
2023-01-27T15:49:46.685Z,68.18
2023-01-27T15:52:27.563Z,67.56
2023-01-27T15:54:57.757Z,67.45
2023-01-27T15:57:29.911Z,68.32
2023-01-27T16:00:04.719Z,68.31
2023-01-27T16:02:37.925Z,68.11
2023-01-27T16:05:23.921Z,67.90
2023-01-27T16:07:54.262Z,67.90
2023-01-27T16:10:24.679Z,67.97
2023-01-27T16:13:22.333Z,68.11
2023-01-27T16:16:25.174Z,68.15
2023-01-27T16:19:01.257Z,67.89
2023-01-27T16:21:43.802Z,68.04
2023-01-27T16:24:23.782Z,68.09
2023-01-27T16:26:56.556Z,68.29
2023-01-27T16:29:35.113Z,68.09
2023-01-27T16:32:07.097Z,67.91
2023-01-27T16:34:40.062Z,68.12
2023-01-27T16:37:22.327Z,68.52
2023-01-27T16:39:56.379Z,68.87
2023-01-27T16:42:31.109Z,68.77
2023-01-27T16:45:01.655Z,68.78
2023-01-27T16:47:37.506Z,68.71
2023-01-27T16:50:07.105Z,68.58
2023-01-27T16:52:42.236Z,68.48
2023-01-27T16:55:20.438Z,68.58
2023-01-27T16:57:47.708Z,69.09
2023-01-27T17:00:20.270Z,68.65
2023-01-27T17:02:48.225Z,68.35
2023-01-27T17:05:17.967Z,69.20
2023-01-27T17:08:01.875Z,68.53
2023-01-27T17:10:34.743Z,69.09
2023-01-27T17:13:03.615Z,69.02
2023-01-27T17:15:35.514Z,68.65
2023-01-27T17:18:08.006Z,68.92
2023-01-27T17:20:39.455Z,68.78
2023-01-27T17:23:07.293Z,68.85
2023-01-27T17:25:37.636Z,68.89
2023-01-27T17:28:11.621Z,69.35
2023-01-27T17:30:42.096Z,69.07
2023-01-27T17:33:17.082Z,69.03
2023-01-27T17:35:50.788Z,69.67
2023-01-27T17:38:24.252Z,69.23
2023-01-27T17:40:53.967Z,68.84
2023-01-27T17:43:28.847Z,68.49
2023-01-27T17:46:13.358Z,69.29
2023-01-27T17:48:47.074Z,68.70
2023-01-27T17:51:21.435Z,68.82
2023-01-27T17:53:49.569Z,69.43
2023-01-27T17:56:21.446Z,69.93
2023-01-27T17:58:52.950Z,69.90
2023-01-27T18:01:26.092Z,69.86
2023-01-27T18:03:56.848Z,69.32
2023-01-27T18:06:29.588Z,69.12
2023-01-27T18:09:02.361Z,69.81
2023-01-27T18:11:31.634Z,69.69
2023-01-27T18:14:01.753Z,69.33
2023-01-27T18:16:29.927Z,68.87
2023-01-27T18:19:10.047Z,69.13
2023-01-27T18:21:41.133Z,69.03
2023-01-27T18:24:20.263Z,69.33
2023-01-27T18:26:48.691Z,69.48
2023-01-27T18:29:24.656Z,69.58
2023-01-27T18:31:54.908Z,69.32
2023-01-27T18:34:28.525Z,69.78
2023-01-27T18:36:58.683Z,69.99
2023-01-27T18:39:34.432Z,69.50
2023-01-27T18:42:02.299Z,68.58
2023-01-27T18:44:35.839Z,69.50
2023-01-27T18:47:26.453Z,69.33
2023-01-27T18:50:00.435Z,69.33
2023-01-27T18:52:29.794Z,69.43
2023-01-27T18:55:01.079Z,69.45
2023-01-27T18:57:28.394Z,69.74
2023-01-27T18:59:56.401Z,69.97
2023-01-27T19:02:25.148Z,69.56
2023-01-27T19:04:52.933Z,69.45
2023-01-27T19:07:19.871Z,69.78
2023-01-27T19:09:53.295Z,69.65
2023-01-27T19:12:20.227Z,70.15
2023-01-27T19:14:48.773Z,70.42
2023-01-27T19:17:23.166Z,70.21
2023-01-27T19:19:50.532Z,70.40
2023-01-27T19:22:19.796Z,69.90
2023-01-27T19:24:50.480Z,70.22
2023-01-27T19:27:19.311Z,70.18
2023-01-27T19:29:46.411Z,69.82
2023-01-27T19:32:14.611Z,69.96
2023-01-27T19:34:41.893Z,69.91
2023-01-27T19:37:16.968Z,70.15
2023-01-27T19:39:45.086Z,70.15
2023-01-27T19:42:14.793Z,69.70
2023-01-27T19:44:42.403Z,70.13
2023-01-27T19:47:11.966Z,70.34
2023-01-27T19:49:41.563Z,70.09
2023-01-27T19:52:10.127Z,70.67
2023-01-27T19:54:37.975Z,70.52
2023-01-27T19:57:06.027Z,70.67
2023-01-27T19:59:34.977Z,70.67
2023-01-27T20:02:01.959Z,70.43
2023-01-27T20:04:29.623Z,70.22
2023-01-27T20:06:57.743Z,70.41
2023-01-27T20:09:25.016Z,70.15
2023-01-27T20:11:52.071Z,70.61
2023-01-27T20:14:20.387Z,70.36
2023-01-27T20:16:48.743Z,70.17
2023-01-27T20:19:16.561Z,70.03
2023-01-27T20:21:45.664Z,70.06
2023-01-27T20:24:15.735Z,70.33
2023-01-27T20:26:42.789Z,70.40
2023-01-27T20:29:10.169Z,70.85
2023-01-27T20:31:39.233Z,70.42
2023-01-27T20:34:08.236Z,70.59
2023-01-27T20:36:36.338Z,70.42
2023-01-27T20:39:04.517Z,70.25
2023-01-27T20:41:31.529Z,70.08
2023-01-27T20:44:00.469Z,70.23
2023-01-27T20:46:28.526Z,70.75
2023-01-27T20:48:56.421Z,70.54
2023-01-27T20:51:25.102Z,69.71
2023-01-27T20:53:52.299Z,69.82
2023-01-27T20:56:21.027Z,69.79
2023-01-27T20:58:48.966Z,70.22
2023-01-27T21:01:17.681Z,70.34
2023-01-27T21:03:45.079Z,69.56
2023-01-27T21:06:13.951Z,69.99
2023-01-27T21:08:47.535Z,69.82
2023-01-27T21:11:20.544Z,69.73
2023-01-27T21:13:48.683Z,69.84
2023-01-27T21:16:15.647Z,70.04
2023-01-27T21:18:44.152Z,69.92
2023-01-27T21:21:22.125Z,69.45
2023-01-27T21:23:50.808Z,69.84
2023-01-27T21:26:17.714Z,69.54
2023-01-27T21:28:45.049Z,69.97
2023-01-27T21:31:16.238Z,70.12
2023-01-27T21:33:45.736Z,69.95
2023-01-27T21:36:12.964Z,70.00
2023-01-27T21:38:40.468Z,69.87
2023-01-27T21:41:11.709Z,69.54
2023-01-27T21:43:57.858Z,69.73
2023-01-27T21:46:24.971Z,69.26
2023-01-27T21:48:52.417Z,69.97
2023-01-27T21:51:19.429Z,69.93
2023-01-27T21:53:46.660Z,69.38
2023-01-27T21:56:14.960Z,69.86
2023-01-27T21:58:42.367Z,69.09
2023-01-27T22:01:10.801Z,69.68
2023-01-27T22:03:38.528Z,69.74
2023-01-27T22:06:06.913Z,69.29
2023-01-27T22:08:34.462Z,68.95
2023-01-27T22:11:04.788Z,69.50
2023-01-27T22:13:33.823Z,70.03
2023-01-27T22:16:01.065Z,69.37
2023-01-27T22:18:28.353Z,69.03
2023-01-27T22:20:55.564Z,69.55
2023-01-27T22:23:25.073Z,69.21
2023-01-27T22:25:52.433Z,69.51
2023-01-27T22:28:19.970Z,69.00
2023-01-27T22:30:48.746Z,69.27
2023-01-27T22:33:16.190Z,69.07
2023-01-27T22:35:43.309Z,69.22
2023-01-27T22:38:10.634Z,69.35
2023-01-27T22:40:37.474Z,68.90
2023-01-27T22:43:10.038Z,69.29
2023-01-27T22:45:38.270Z,69.26
2023-01-27T22:48:08.803Z,69.38
2023-01-27T22:50:36.289Z,68.87
2023-01-27T22:53:05.373Z,69.29
2023-01-27T22:55:32.347Z,69.09
2023-01-27T22:57:59.472Z,69.47
2023-01-27T23:00:26.442Z,68.80
2023-01-27T23:02:54.345Z,68.46
2023-01-27T23:05:22.695Z,69.16
2023-01-27T23:07:49.847Z,68.75
2023-01-27T23:10:17.417Z,68.95
2023-01-27T23:12:45.035Z,68.81
2023-01-27T23:15:12.461Z,69.05
2023-01-27T23:17:40.081Z,68.64
2023-01-27T23:20:08.593Z,68.99
2023-01-27T23:22:37.353Z,69.28
2023-01-27T23:25:05.079Z,68.72
2023-01-27T23:27:32.724Z,69.52
2023-01-27T23:29:59.714Z,69.28
2023-01-27T23:32:26.977Z,69.45
2023-01-27T23:34:53.901Z,69.28
2023-01-27T23:37:21.142Z,69.53
2023-01-27T23:39:49.826Z,69.05
2023-01-27T23:42:17.705Z,69.50
2023-01-27T23:44:44.795Z,68.97
2023-01-27T23:47:12.828Z,68.72
2023-01-27T23:49:39.917Z,68.82
2023-01-27T23:52:07.521Z,68.65
2023-01-27T23:54:34.634Z,69.14
2023-01-27T23:57:03.329Z,68.54
2023-01-27T23:59:30.286Z,68.54
